sensor_id;sensor_type;location;lat;lon;timestamp;P1;durP1;ratioP1;P2;durP2;ratioP2
17864;SDS011;9058;52.018;4.202;2023-05-27T00:02:14;17.13;;;4.78;;
17864;SDS011;9058;52.018;4.202;2023-05-27T00:04:43;13.27;;;5.38;;
17864;SDS011;9058;52.018;4.202;2023-05-27T00:07:09;18.38;;;6.65;;
17864;SDS011;9058;52.018;4.202;2023-05-27T00:09:36;15.60;;;5.28;;
17864;SDS011;9058;52.018;4.202;2023-05-27T00:12:03;20.33;;;5.45;;
17864;SDS011;9058;52.018;4.202;2023-05-27T00:14:30;17.35;;;5.45;;
17864;SDS011;9058;52.018;4.202;2023-05-27T00:16:57;18.63;;;5.82;;
17864;SDS011;9058;52.018;4.202;2023-05-27T00:19:24;19.45;;;6.15;;
17864;SDS011;9058;52.018;4.202;2023-05-27T00:21:52;20.65;;;5.70;;
17864;SDS011;9058;52.018;4.202;2023-05-27T00:24:18;18.40;;;4.93;;
17864;SDS011;9058;52.018;4.202;2023-05-27T00:26:45;19.05;;;5.50;;
17864;SDS011;9058;52.018;4.202;2023-05-27T00:29:11;13.10;;;5.30;;
17864;SDS011;9058;52.018;4.202;2023-05-27T00:31:39;23.30;;;6.72;;
17864;SDS011;9058;52.018;4.202;2023-05-27T00:34:06;12.13;;;4.88;;
17864;SDS011;9058;52.018;4.202;2023-05-27T00:36:32;19.88;;;6.78;;
17864;SDS011;9058;52.018;4.202;2023-05-27T00:39:01;25.10;;;6.78;;
17864;SDS011;9058;52.018;4.202;2023-05-27T00:41:27;19.73;;;5.50;;
17864;SDS011;9058;52.018;4.202;2023-05-27T00:43:55;12.98;;;4.97;;
17864;SDS011;9058;52.018;4.202;2023-05-27T00:46:22;18.85;;;6.05;;
17864;SDS011;9058;52.018;4.202;2023-05-27T00:48:48;14.05;;;5.40;;
17864;SDS011;9058;52.018;4.202;2023-05-27T00:51:15;19.70;;;5.07;;
17864;SDS011;9058;52.018;4.202;2023-05-27T00:53:42;21.65;;;5.53;;
17864;SDS011;9058;52.018;4.202;2023-05-27T00:56:10;18.58;;;6.40;;
17864;SDS011;9058;52.018;4.202;2023-05-27T00:58:38;11.88;;;4.63;;
17864;SDS011;9058;52.018;4.202;2023-05-27T01:01:04;16.08;;;4.78;;
17864;SDS011;9058;52.018;4.202;2023-05-27T01:03:32;14.15;;;5.43;;
17864;SDS011;9058;52.018;4.202;2023-05-27T01:06:01;14.63;;;4.90;;
17864;SDS011;9058;52.018;4.202;2023-05-27T01:08:31;19.38;;;4.93;;
17864;SDS011;9058;52.018;4.202;2023-05-27T01:11:00;10.77;;;4.47;;
17864;SDS011;9058;52.018;4.202;2023-05-27T01:13:31;18.17;;;5.15;;
17864;SDS011;9058;52.018;4.202;2023-05-27T01:15:59;21.55;;;5.05;;
17864;SDS011;9058;52.018;4.202;2023-05-27T01:18:26;14.05;;;4.22;;
17864;SDS011;9058;52.018;4.202;2023-05-27T01:20:55;16.17;;;4.20;;
17864;SDS011;9058;52.018;4.202;2023-05-27T01:23:27;13.27;;;4.03;;
17864;SDS011;9058;52.018;4.202;2023-05-27T01:25:53;16.27;;;4.45;;
17864;SDS011;9058;52.018;4.202;2023-05-27T01:28:21;14.23;;;4.97;;
17864;SDS011;9058;52.018;4.202;2023-05-27T01:30:47;10.60;;;4.15;;
17864;SDS011;9058;52.018;4.202;2023-05-27T01:33:16;12.98;;;4.40;;
17864;SDS011;9058;52.018;4.202;2023-05-27T01:35:44;12.95;;;3.90;;
17864;SDS011;9058;52.018;4.202;2023-05-27T01:38:13;16.42;;;5.03;;
17864;SDS011;9058;52.018;4.202;2023-05-27T01:40:42;16.23;;;4.32;;
17864;SDS011;9058;52.018;4.202;2023-05-27T01:43:09;11.52;;;4.05;;
17864;SDS011;9058;52.018;4.202;2023-05-27T01:45:36;13.80;;;3.97;;
17864;SDS011;9058;52.018;4.202;2023-05-27T01:48:04;16.15;;;4.00;;
17864;SDS011;9058;52.018;4.202;2023-05-27T01:50:31;13.00;;;3.95;;
17864;SDS011;9058;52.018;4.202;2023-05-27T01:52:58;14.90;;;4.28;;
17864;SDS011;9058;52.018;4.202;2023-05-27T01:55:25;13.25;;;3.60;;
17864;SDS011;9058;52.018;4.202;2023-05-27T01:57:54;10.93;;;3.40;;
17864;SDS011;9058;52.018;4.202;2023-05-27T02:00:21;14.10;;;3.83;;
17864;SDS011;9058;52.018;4.202;2023-05-27T02:02:49;15.15;;;4.75;;
17864;SDS011;9058;52.018;4.202;2023-05-27T02:05:15;12.85;;;3.92;;
17864;SDS011;9058;52.018;4.202;2023-05-27T02:07:42;13.45;;;4.15;;
17864;SDS011;9058;52.018;4.202;2023-05-27T02:10:08;13.55;;;4.25;;
17864;SDS011;9058;52.018;4.202;2023-05-27T02:12:35;11.13;;;3.63;;
17864;SDS011;9058;52.018;4.202;2023-05-27T02:15:02;14.45;;;3.88;;
17864;SDS011;9058;52.018;4.202;2023-05-27T02:17:29;10.32;;;4.38;;
17864;SDS011;9058;52.018;4.202;2023-05-27T02:19:55;13.90;;;4.10;;
17864;SDS011;9058;52.018;4.202;2023-05-27T02:22:22;11.63;;;3.25;;
17864;SDS011;9058;52.018;4.202;2023-05-27T02:24:48;12.52;;;3.50;;
17864;SDS011;9058;52.018;4.202;2023-05-27T02:27:14;16.85;;;4.10;;
17864;SDS011;9058;52.018;4.202;2023-05-27T02:29:41;12.10;;;4.13;;
17864;SDS011;9058;52.018;4.202;2023-05-27T02:32:09;14.05;;;3.97;;
17864;SDS011;9058;52.018;4.202;2023-05-27T02:34:36;13.50;;;3.92;;
17864;SDS011;9058;52.018;4.202;2023-05-27T02:37:03;16.85;;;4.43;;
17864;SDS011;9058;52.018;4.202;2023-05-27T02:39:30;15.43;;;4.35;;
17864;SDS011;9058;52.018;4.202;2023-05-27T02:41:56;11.63;;;4.22;;
17864;SDS011;9058;52.018;4.202;2023-05-27T02:44:23;15.75;;;4.15;;
17864;SDS011;9058;52.018;4.202;2023-05-27T02:46:49;10.48;;;3.95;;
17864;SDS011;9058;52.018;4.202;2023-05-27T02:49:17;17.23;;;4.30;;
17864;SDS011;9058;52.018;4.202;2023-05-27T02:51:44;12.27;;;4.03;;
17864;SDS011;9058;52.018;4.202;2023-05-27T02:54:10;12.50;;;4.00;;
17864;SDS011;9058;52.018;4.202;2023-05-27T02:56:37;13.52;;;4.32;;
17864;SDS011;9058;52.018;4.202;2023-05-27T02:59:04;13.52;;;4.40;;
17864;SDS011;9058;52.018;4.202;2023-05-27T03:01:30;14.25;;;4.07;;
17864;SDS011;9058;52.018;4.202;2023-05-27T03:03:57;17.83;;;4.28;;
17864;SDS011;9058;52.018;4.202;2023-05-27T03:06:24;13.10;;;4.68;;
17864;SDS011;9058;52.018;4.202;2023-05-27T03:08:52;12.10;;;4.43;;
17864;SDS011;9058;52.018;4.202;2023-05-27T03:11:19;10.30;;;3.78;;
17864;SDS011;9058;52.018;4.202;2023-05-27T03:13:46;12.80;;;4.20;;
17864;SDS011;9058;52.018;4.202;2023-05-27T03:16:13;13.25;;;3.30;;
17864;SDS011;9058;52.018;4.202;2023-05-27T03:18:40;10.98;;;4.20;;
17864;SDS011;9058;52.018;4.202;2023-05-27T03:21:07;12.63;;;3.83;;
17864;SDS011;9058;52.018;4.202;2023-05-27T03:23:35;13.27;;;3.78;;
17864;SDS011;9058;52.018;4.202;2023-05-27T03:26:01;17.90;;;4.63;;
17864;SDS011;9058;52.018;4.202;2023-05-27T03:28:28;18.13;;;5.22;;
17864;SDS011;9058;52.018;4.202;2023-05-27T03:30:55;14.45;;;4.85;;
17864;SDS011;9058;52.018;4.202;2023-05-27T03:33:22;11.00;;;4.18;;
17864;SDS011;9058;52.018;4.202;2023-05-27T03:35:48;13.13;;;3.80;;
17864;SDS011;9058;52.018;4.202;2023-05-27T03:38:15;12.38;;;4.53;;
17864;SDS011;9058;52.018;4.202;2023-05-27T03:40:43;10.68;;;4.15;;
17864;SDS011;9058;52.018;4.202;2023-05-27T03:43:10;10.57;;;4.03;;
17864;SDS011;9058;52.018;4.202;2023-05-27T03:45:36;10.35;;;4.15;;
17864;SDS011;9058;52.018;4.202;2023-05-27T03:48:03;12.40;;;3.90;;
17864;SDS011;9058;52.018;4.202;2023-05-27T03:50:30;10.48;;;3.75;;
17864;SDS011;9058;52.018;4.202;2023-05-27T03:52:56;10.15;;;4.20;;
17864;SDS011;9058;52.018;4.202;2023-05-27T03:55:23;12.65;;;4.13;;
17864;SDS011;9058;52.018;4.202;2023-05-27T03:57:51;12.13;;;4.15;;
17864;SDS011;9058;52.018;4.202;2023-05-27T04:00:17;15.88;;;4.75;;
17864;SDS011;9058;52.018;4.202;2023-05-27T04:02:44;13.23;;;4.40;;
17864;SDS011;9058;52.018;4.202;2023-05-27T04:05:10;11.68;;;3.95;;
17864;SDS011;9058;52.018;4.202;2023-05-27T04:07:37;14.43;;;3.85;;
17864;SDS011;9058;52.018;4.202;2023-05-27T04:10:04;15.50;;;4.45;;
17864;SDS011;9058;52.018;4.202;2023-05-27T04:12:31;21.33;;;4.95;;
17864;SDS011;9058;52.018;4.202;2023-05-27T04:14:59;15.82;;;4.60;;
17864;SDS011;9058;52.018;4.202;2023-05-27T04:17:26;12.25;;;5.45;;
17864;SDS011;9058;52.018;4.202;2023-05-27T04:19:52;15.20;;;4.25;;
17864;SDS011;9058;52.018;4.202;2023-05-27T04:22:20;17.52;;;5.47;;
17864;SDS011;9058;52.018;4.202;2023-05-27T04:24:46;12.05;;;4.47;;
17864;SDS011;9058;52.018;4.202;2023-05-27T04:27:14;16.30;;;4.78;;
17864;SDS011;9058;52.018;4.202;2023-05-27T04:29:41;11.82;;;4.65;;
17864;SDS011;9058;52.018;4.202;2023-05-27T04:32:11;14.55;;;5.00;;
17864;SDS011;9058;52.018;4.202;2023-05-27T04:34:38;15.63;;;5.10;;
17864;SDS011;9058;52.018;4.202;2023-05-27T04:37:06;14.27;;;4.63;;
17864;SDS011;9058;52.018;4.202;2023-05-27T04:39:34;13.55;;;4.57;;
17864;SDS011;9058;52.018;4.202;2023-05-27T04:42:01;14.85;;;5.15;;
17864;SDS011;9058;52.018;4.202;2023-05-27T04:44:28;17.52;;;4.38;;
17864;SDS011;9058;52.018;4.202;2023-05-27T04:46:55;11.48;;;4.18;;
17864;SDS011;9058;52.018;4.202;2023-05-27T04:49:22;14.85;;;4.30;;
17864;SDS011;9058;52.018;4.202;2023-05-27T04:51:48;14.30;;;5.50;;
17864;SDS011;9058;52.018;4.202;2023-05-27T04:54:15;14.45;;;4.72;;
17864;SDS011;9058;52.018;4.202;2023-05-27T04:56:43;18.77;;;5.35;;
17864;SDS011;9058;52.018;4.202;2023-05-27T04:59:09;14.90;;;4.50;;
17864;SDS011;9058;52.018;4.202;2023-05-27T05:01:41;13.00;;;5.13;;
17864;SDS011;9058;52.018;4.202;2023-05-27T05:04:25;16.92;;;6.30;;
17864;SDS011;9058;52.018;4.202;2023-05-27T05:06:52;9.65;;;4.00;;
17864;SDS011;9058;52.018;4.202;2023-05-27T05:09:20;11.18;;;4.18;;
17864;SDS011;9058;52.018;4.202;2023-05-27T05:11:47;15.48;;;4.75;;
17864;SDS011;9058;52.018;4.202;2023-05-27T05:14:14;10.80;;;4.20;;
17864;SDS011;9058;52.018;4.202;2023-05-27T05:16:40;19.02;;;4.90;;
17864;SDS011;9058;52.018;4.202;2023-05-27T05:19:07;12.57;;;4.13;;
17864;SDS011;9058;52.018;4.202;2023-05-27T05:21:35;13.95;;;5.30;;
17864;SDS011;9058;52.018;4.202;2023-05-27T05:24:02;14.25;;;4.20;;
17864;SDS011;9058;52.018;4.202;2023-05-27T05:26:31;12.27;;;4.00;;
17864;SDS011;9058;52.018;4.202;2023-05-27T05:28:57;13.23;;;4.55;;
17864;SDS011;9058;52.018;4.202;2023-05-27T05:31:24;12.77;;;4.07;;
17864;SDS011;9058;52.018;4.202;2023-05-27T05:33:51;13.02;;;4.05;;
17864;SDS011;9058;52.018;4.202;2023-05-27T05:36:17;11.98;;;4.57;;
17864;SDS011;9058;52.018;4.202;2023-05-27T05:38:45;10.20;;;4.10;;
17864;SDS011;9058;52.018;4.202;2023-05-27T05:41:12;18.10;;;4.63;;
17864;SDS011;9058;52.018;4.202;2023-05-27T05:43:38;16.55;;;4.40;;
17864;SDS011;9058;52.018;4.202;2023-05-27T05:46:05;17.70;;;4.32;;
17864;SDS011;9058;52.018;4.202;2023-05-27T05:48:32;14.07;;;4.95;;
17864;SDS011;9058;52.018;4.202;2023-05-27T05:50:58;10.70;;;4.50;;
17864;SDS011;9058;52.018;4.202;2023-05-27T05:53:25;10.77;;;3.95;;
17864;SDS011;9058;52.018;4.202;2023-05-27T05:55:55;10.80;;;3.78;;
17864;SDS011;9058;52.018;4.202;2023-05-27T05:58:22;12.20;;;4.38;;
17864;SDS011;9058;52.018;4.202;2023-05-27T06:00:48;13.05;;;4.30;;
17864;SDS011;9058;52.018;4.202;2023-05-27T06:03:15;10.82;;;3.72;;
17864;SDS011;9058;52.018;4.202;2023-05-27T06:05:42;12.18;;;4.32;;
17864;SDS011;9058;52.018;4.202;2023-05-27T06:08:08;15.77;;;4.65;;
17864;SDS011;9058;52.018;4.202;2023-05-27T06:10:35;11.93;;;4.03;;
17864;SDS011;9058;52.018;4.202;2023-05-27T06:13:03;13.68;;;4.20;;
17864;SDS011;9058;52.018;4.202;2023-05-27T06:15:30;16.02;;;4.05;;
17864;SDS011;9058;52.018;4.202;2023-05-27T06:17:57;11.60;;;4.18;;
17864;SDS011;9058;52.018;4.202;2023-05-27T06:20:23;14.05;;;3.55;;
17864;SDS011;9058;52.018;4.202;2023-05-27T06:22:49;18.63;;;3.75;;
17864;SDS011;9058;52.018;4.202;2023-05-27T06:25:16;16.58;;;3.88;;
17864;SDS011;9058;52.018;4.202;2023-05-27T06:27:42;12.48;;;3.70;;
17864;SDS011;9058;52.018;4.202;2023-05-27T06:30:10;9.82;;;3.50;;
17864;SDS011;9058;52.018;4.202;2023-05-27T06:32:37;12.75;;;3.00;;
17864;SDS011;9058;52.018;4.202;2023-05-27T06:35:03;11.65;;;3.70;;
17864;SDS011;9058;52.018;4.202;2023-05-27T06:37:30;14.93;;;3.50;;
17864;SDS011;9058;52.018;4.202;2023-05-27T06:39:57;9.55;;;3.38;;
17864;SDS011;9058;52.018;4.202;2023-05-27T06:42:23;13.23;;;3.55;;
17864;SDS011;9058;52.018;4.202;2023-05-27T06:44:50;10.65;;;3.17;;
17864;SDS011;9058;52.018;4.202;2023-05-27T06:47:17;11.27;;;3.88;;
17864;SDS011;9058;52.018;4.202;2023-05-27T06:49:44;9.50;;;3.30;;
17864;SDS011;9058;52.018;4.202;2023-05-27T06:52:10;11.40;;;3.72;;
17864;SDS011;9058;52.018;4.202;2023-05-27T06:54:37;10.80;;;3.33;;
17864;SDS011;9058;52.018;4.202;2023-05-27T06:57:04;13.60;;;3.67;;
17864;SDS011;9058;52.018;4.202;2023-05-27T06:59:30;14.85;;;3.42;;
17864;SDS011;9058;52.018;4.202;2023-05-27T07:01:57;15.30;;;3.90;;
17864;SDS011;9058;52.018;4.202;2023-05-27T07:04:27;15.48;;;4.35;;
17864;SDS011;9058;52.018;4.202;2023-05-27T07:06:53;14.20;;;4.07;;
17864;SDS011;9058;52.018;4.202;2023-05-27T07:09:19;10.85;;;3.70;;
17864;SDS011;9058;52.018;4.202;2023-05-27T07:11:46;14.75;;;4.00;;
17864;SDS011;9058;52.018;4.202;2023-05-27T07:14:12;12.18;;;4.00;;
17864;SDS011;9058;52.018;4.202;2023-05-27T07:16:39;10.40;;;2.95;;
17864;SDS011;9058;52.018;4.202;2023-05-27T07:19:06;14.88;;;4.03;;
17864;SDS011;9058;52.018;4.202;2023-05-27T07:21:34;10.68;;;4.15;;
17864;SDS011;9058;52.018;4.202;2023-05-27T07:24:01;13.75;;;4.30;;
17864;SDS011;9058;52.018;4.202;2023-05-27T07:26:28;13.27;;;3.75;;
17864;SDS011;9058;52.018;4.202;2023-05-27T07:28:56;12.00;;;5.07;;
17864;SDS011;9058;52.018;4.202;2023-05-27T07:31:23;15.05;;;4.10;;
17864;SDS011;9058;52.018;4.202;2023-05-27T07:33:50;17.05;;;4.10;;
17864;SDS011;9058;52.018;4.202;2023-05-27T07:36:16;13.80;;;4.20;;
17864;SDS011;9058;52.018;4.202;2023-05-27T07:38:44;8.98;;;3.65;;
17864;SDS011;9058;52.018;4.202;2023-05-27T07:41:11;19.38;;;4.40;;
17864;SDS011;9058;52.018;4.202;2023-05-27T07:43:38;10.93;;;3.50;;
17864;SDS011;9058;52.018;4.202;2023-05-27T07:46:04;13.98;;;3.65;;
17864;SDS011;9058;52.018;4.202;2023-05-27T07:48:31;12.40;;;4.05;;
17864;SDS011;9058;52.018;4.202;2023-05-27T07:50:57;13.15;;;3.80;;
17864;SDS011;9058;52.018;4.202;2023-05-27T07:53:23;13.52;;;3.60;;
17864;SDS011;9058;52.018;4.202;2023-05-27T07:55:51;11.88;;;3.72;;
17864;SDS011;9058;52.018;4.202;2023-05-27T07:58:17;12.95;;;4.13;;
17864;SDS011;9058;52.018;4.202;2023-05-27T08:00:44;10.43;;;3.33;;
17864;SDS011;9058;52.018;4.202;2023-05-27T08:03:20;17.02;;;4.57;;
17864;SDS011;9058;52.018;4.202;2023-05-27T08:05:47;15.52;;;4.22;;
17864;SDS011;9058;52.018;4.202;2023-05-27T08:08:14;12.02;;;4.10;;
17864;SDS011;9058;52.018;4.202;2023-05-27T08:10:40;9.25;;;3.55;;
17864;SDS011;9058;52.018;4.202;2023-05-27T08:13:10;10.02;;;3.60;;
17864;SDS011;9058;52.018;4.202;2023-05-27T08:15:37;17.95;;;4.43;;
17864;SDS011;9058;52.018;4.202;2023-05-27T08:18:04;10.00;;;4.03;;
17864;SDS011;9058;52.018;4.202;2023-05-27T08:20:30;11.65;;;4.10;;
17864;SDS011;9058;52.018;4.202;2023-05-27T08:22:57;16.40;;;4.18;;
17864;SDS011;9058;52.018;4.202;2023-05-27T08:25:23;11.80;;;3.88;;
17864;SDS011;9058;52.018;4.202;2023-05-27T08:27:52;12.40;;;4.30;;
17864;SDS011;9058;52.018;4.202;2023-05-27T08:30:20;10.02;;;4.35;;
17864;SDS011;9058;52.018;4.202;2023-05-27T08:32:47;14.50;;;4.32;;
17864;SDS011;9058;52.018;4.202;2023-05-27T08:35:13;12.50;;;4.63;;
17864;SDS011;9058;52.018;4.202;2023-05-27T08:37:40;11.40;;;4.57;;
17864;SDS011;9058;52.018;4.202;2023-05-27T08:40:08;13.48;;;4.32;;
17864;SDS011;9058;52.018;4.202;2023-05-27T08:42:35;13.20;;;4.38;;
17864;SDS011;9058;52.018;4.202;2023-05-27T08:45:02;11.77;;;4.70;;
17864;SDS011;9058;52.018;4.202;2023-05-27T08:47:30;11.88;;;4.32;;
17864;SDS011;9058;52.018;4.202;2023-05-27T08:49:56;13.10;;;4.55;;
17864;SDS011;9058;52.018;4.202;2023-05-27T08:52:23;12.80;;;4.40;;
17864;SDS011;9058;52.018;4.202;2023-05-27T08:54:50;9.95;;;4.10;;
17864;SDS011;9058;52.018;4.202;2023-05-27T08:57:17;10.90;;;4.10;;
17864;SDS011;9058;52.018;4.202;2023-05-27T08:59:45;9.82;;;3.58;;
17864;SDS011;9058;52.018;4.202;2023-05-27T09:02:12;13.00;;;4.28;;
17864;SDS011;9058;52.018;4.202;2023-05-27T09:04:40;13.90;;;4.75;;
17864;SDS011;9058;52.018;4.202;2023-05-27T09:07:07;12.02;;;4.55;;
17864;SDS011;9058;52.018;4.202;2023-05-27T09:09:34;12.40;;;4.78;;
17864;SDS011;9058;52.018;4.202;2023-05-27T09:12:01;10.93;;;4.38;;
17864;SDS011;9058;52.018;4.202;2023-05-27T09:14:27;14.07;;;3.80;;
17864;SDS011;9058;52.018;4.202;2023-05-27T09:16:55;9.50;;;4.00;;
17864;SDS011;9058;52.018;4.202;2023-05-27T09:19:22;12.77;;;4.25;;
17864;SDS011;9058;52.018;4.202;2023-05-27T09:21:52;13.43;;;4.40;;
17864;SDS011;9058;52.018;4.202;2023-05-27T09:24:18;11.80;;;4.05;;
17864;SDS011;9058;52.018;4.202;2023-05-27T09:26:45;9.70;;;4.03;;
17864;SDS011;9058;52.018;4.202;2023-05-27T09:29:11;10.88;;;4.13;;
17864;SDS011;9058;52.018;4.202;2023-05-27T09:31:38;10.57;;;3.70;;
17864;SDS011;9058;52.018;4.202;2023-05-27T09:34:09;12.02;;;3.90;;
17864;SDS011;9058;52.018;4.202;2023-05-27T09:36:41;16.38;;;4.13;;
17864;SDS011;9058;52.018;4.202;2023-05-27T09:39:10;11.18;;;3.75;;
17864;SDS011;9058;52.018;4.202;2023-05-27T09:41:37;11.80;;;3.95;;
17864;SDS011;9058;52.018;4.202;2023-05-27T09:44:04;13.43;;;4.32;;
17864;SDS011;9058;52.018;4.202;2023-05-27T09:46:32;13.27;;;4.32;;
17864;SDS011;9058;52.018;4.202;2023-05-27T09:48:58;15.57;;;4.90;;
17864;SDS011;9058;52.018;4.202;2023-05-27T09:51:25;13.43;;;4.38;;
17864;SDS011;9058;52.018;4.202;2023-05-27T09:56:42;13.50;;;4.55;;
17864;SDS011;9058;52.018;4.202;2023-05-27T09:59:10;16.65;;;5.15;;
17864;SDS011;9058;52.018;4.202;2023-05-27T10:01:37;10.95;;;4.22;;
17864;SDS011;9058;52.018;4.202;2023-05-27T10:04:05;9.38;;;4.28;;
17864;SDS011;9058;52.018;4.202;2023-05-27T10:06:33;10.63;;;4.45;;
17864;SDS011;9058;52.018;4.202;2023-05-27T10:09:00;13.82;;;4.30;;
17864;SDS011;9058;52.018;4.202;2023-05-27T10:11:29;11.82;;;4.68;;
17864;SDS011;9058;52.018;4.202;2023-05-27T10:13:58;16.60;;;5.18;;
17864;SDS011;9058;52.018;4.202;2023-05-27T10:16:26;13.15;;;4.05;;
17864;SDS011;9058;52.018;4.202;2023-05-27T10:18:52;12.52;;;4.55;;
17864;SDS011;9058;52.018;4.202;2023-05-27T10:21:20;15.95;;;5.28;;
17864;SDS011;9058;52.018;4.202;2023-05-27T10:23:52;15.10;;;4.65;;
17864;SDS011;9058;52.018;4.202;2023-05-27T10:26:19;14.43;;;4.78;;
17864;SDS011;9058;52.018;4.202;2023-05-27T10:28:46;14.02;;;4.28;;
17864;SDS011;9058;52.018;4.202;2023-05-27T10:31:15;14.30;;;4.72;;
17864;SDS011;9058;52.018;4.202;2023-05-27T10:33:43;12.18;;;4.28;;
17864;SDS011;9058;52.018;4.202;2023-05-27T10:36:11;15.90;;;5.07;;
17864;SDS011;9058;52.018;4.202;2023-05-27T10:38:38;10.88;;;4.30;;
17864;SDS011;9058;52.018;4.202;2023-05-27T10:41:05;11.60;;;4.30;;
17864;SDS011;9058;52.018;4.202;2023-05-27T10:43:32;11.43;;;4.95;;
17864;SDS011;9058;52.018;4.202;2023-05-27T10:46:07;12.75;;;4.38;;
17864;SDS011;9058;52.018;4.202;2023-05-27T10:48:36;10.15;;;4.38;;
17864;SDS011;9058;52.018;4.202;2023-05-27T10:51:05;15.35;;;4.75;;
17864;SDS011;9058;52.018;4.202;2023-05-27T10:53:31;15.20;;;4.05;;
17864;SDS011;9058;52.018;4.202;2023-05-27T10:55:58;9.98;;;4.47;;
17864;SDS011;9058;52.018;4.202;2023-05-27T10:58:25;12.13;;;4.55;;
17864;SDS011;9058;52.018;4.202;2023-05-27T11:00:52;12.35;;;5.07;;
17864;SDS011;9058;52.018;4.202;2023-05-27T11:03:19;13.93;;;5.28;;
17864;SDS011;9058;52.018;4.202;2023-05-27T11:05:48;13.60;;;4.15;;
17864;SDS011;9058;52.018;4.202;2023-05-27T11:08:36;16.08;;;4.88;;
17864;SDS011;9058;52.018;4.202;2023-05-27T11:11:05;14.38;;;5.18;;
17864;SDS011;9058;52.018;4.202;2023-05-27T11:13:32;9.95;;;4.30;;
17864;SDS011;9058;52.018;4.202;2023-05-27T11:16:00;9.98;;;4.32;;
17864;SDS011;9058;52.018;4.202;2023-05-27T11:18:33;15.93;;;4.75;;
17864;SDS011;9058;52.018;4.202;2023-05-27T11:21:01;16.52;;;5.43;;
17864;SDS011;9058;52.018;4.202;2023-05-27T11:23:33;14.57;;;4.70;;
17864;SDS011;9058;52.018;4.202;2023-05-27T11:25:59;23.02;;;7.15;;
17864;SDS011;9058;52.018;4.202;2023-05-27T11:28:27;21.85;;;5.68;;
17864;SDS011;9058;52.018;4.202;2023-05-27T11:30:57;27.08;;;8.25;;
17864;SDS011;9058;52.018;4.202;2023-05-27T11:33:29;31.58;;;8.98;;
17864;SDS011;9058;52.018;4.202;2023-05-27T11:36:04;18.95;;;5.82;;
17864;SDS011;9058;52.018;4.202;2023-05-27T11:38:30;23.23;;;6.88;;
17864;SDS011;9058;52.018;4.202;2023-05-27T11:41:06;17.55;;;6.00;;
17864;SDS011;9058;52.018;4.202;2023-05-27T11:43:32;15.73;;;5.40;;
17864;SDS011;9058;52.018;4.202;2023-05-27T11:46:02;17.58;;;6.13;;
17864;SDS011;9058;52.018;4.202;2023-05-27T11:48:28;33.15;;;8.73;;
17864;SDS011;9058;52.018;4.202;2023-05-27T11:50:56;29.27;;;7.38;;
17864;SDS011;9058;52.018;4.202;2023-05-27T11:53:26;29.23;;;7.97;;
17864;SDS011;9058;52.018;4.202;2023-05-27T11:55:53;20.40;;;6.10;;
17864;SDS011;9058;52.018;4.202;2023-05-27T11:58:21;20.77;;;6.43;;
17864;SDS011;9058;52.018;4.202;2023-05-27T12:00:47;20.20;;;6.22;;
17864;SDS011;9058;52.018;4.202;2023-05-27T12:03:14;16.65;;;6.28;;
17864;SDS011;9058;52.018;4.202;2023-05-27T12:05:40;12.75;;;4.82;;
17864;SDS011;9058;52.018;4.202;2023-05-27T12:08:06;18.70;;;5.47;;
17864;SDS011;9058;52.018;4.202;2023-05-27T12:10:35;23.65;;;7.05;;
17864;SDS011;9058;52.018;4.202;2023-05-27T12:13:02;17.60;;;5.47;;
17864;SDS011;9058;52.018;4.202;2023-05-27T12:15:28;16.55;;;5.95;;
17864;SDS011;9058;52.018;4.202;2023-05-27T12:17:55;15.20;;;6.05;;
17864;SDS011;9058;52.018;4.202;2023-05-27T12:20:21;19.05;;;6.03;;
17864;SDS011;9058;52.018;4.202;2023-05-27T12:22:49;15.88;;;6.50;;
17864;SDS011;9058;52.018;4.202;2023-05-27T12:25:15;18.98;;;5.90;;
17864;SDS011;9058;52.018;4.202;2023-05-27T12:27:43;21.58;;;7.32;;
17864;SDS011;9058;52.018;4.202;2023-05-27T12:30:10;33.88;;;9.82;;
17864;SDS011;9058;52.018;4.202;2023-05-27T12:32:37;24.77;;;6.70;;
17864;SDS011;9058;52.018;4.202;2023-05-27T12:35:04;32.90;;;8.93;;
17864;SDS011;9058;52.018;4.202;2023-05-27T12:37:31;33.47;;;9.27;;
17864;SDS011;9058;52.018;4.202;2023-05-27T12:39:57;49.30;;;11.68;;
17864;SDS011;9058;52.018;4.202;2023-05-27T12:42:23;24.58;;;6.78;;
17864;SDS011;9058;52.018;4.202;2023-05-27T12:44:51;29.92;;;8.82;;
17864;SDS011;9058;52.018;4.202;2023-05-27T12:47:17;32.80;;;9.57;;
17864;SDS011;9058;52.018;4.202;2023-05-27T12:49:44;19.52;;;6.30;;
17864;SDS011;9058;52.018;4.202;2023-05-27T12:52:11;18.70;;;7.00;;
17864;SDS011;9058;52.018;4.202;2023-05-27T12:54:37;31.38;;;9.25;;
17864;SDS011;9058;52.018;4.202;2023-05-27T12:57:03;23.67;;;7.07;;
17864;SDS011;9058;52.018;4.202;2023-05-27T12:59:30;27.30;;;7.53;;
17864;SDS011;9058;52.018;4.202;2023-05-27T13:01:59;35.67;;;9.90;;
17864;SDS011;9058;52.018;4.202;2023-05-27T13:04:25;27.95;;;8.48;;
17864;SDS011;9058;52.018;4.202;2023-05-27T13:06:53;20.88;;;6.50;;
17864;SDS011;9058;52.018;4.202;2023-05-27T13:09:19;18.83;;;5.60;;
17864;SDS011;9058;52.018;4.202;2023-05-27T13:11:46;19.10;;;5.40;;
17864;SDS011;9058;52.018;4.202;2023-05-27T13:14:12;20.80;;;6.00;;
17864;SDS011;9058;52.018;4.202;2023-05-27T13:16:39;17.80;;;6.50;;
17864;SDS011;9058;52.018;4.202;2023-05-27T13:19:06;18.38;;;5.70;;
17864;SDS011;9058;52.018;4.202;2023-05-27T13:21:33;16.20;;;5.80;;
17864;SDS011;9058;52.018;4.202;2023-05-27T13:24:00;19.08;;;5.57;;
17864;SDS011;9058;52.018;4.202;2023-05-27T13:26:27;15.15;;;5.82;;
17864;SDS011;9058;52.018;4.202;2023-05-27T13:28:54;13.93;;;4.32;;
17864;SDS011;9058;52.018;4.202;2023-05-27T13:31:20;17.73;;;5.38;;
17864;SDS011;9058;52.018;4.202;2023-05-27T13:33:47;22.75;;;7.18;;
17864;SDS011;9058;52.018;4.202;2023-05-27T13:36:15;25.88;;;8.15;;
17864;SDS011;9058;52.018;4.202;2023-05-27T13:38:41;26.77;;;6.32;;
17864;SDS011;9058;52.018;4.202;2023-05-27T13:41:08;19.98;;;5.68;;
17864;SDS011;9058;52.018;4.202;2023-05-27T13:43:35;19.50;;;5.57;;
17864;SDS011;9058;52.018;4.202;2023-05-27T13:46:01;17.40;;;6.82;;
17864;SDS011;9058;52.018;4.202;2023-05-27T13:48:27;20.77;;;7.13;;
17864;SDS011;9058;52.018;4.202;2023-05-27T13:50:54;19.98;;;6.68;;
17864;SDS011;9058;52.018;4.202;2023-05-27T13:53:22;24.50;;;6.90;;
17864;SDS011;9058;52.018;4.202;2023-05-27T13:55:48;21.52;;;6.03;;
17864;SDS011;9058;52.018;4.202;2023-05-27T13:58:16;28.30;;;8.20;;
17864;SDS011;9058;52.018;4.202;2023-05-27T14:00:43;17.27;;;5.50;;
17864;SDS011;9058;52.018;4.202;2023-05-27T14:03:09;21.05;;;6.28;;
17864;SDS011;9058;52.018;4.202;2023-05-27T14:05:36;18.65;;;6.07;;
17864;SDS011;9058;52.018;4.202;2023-05-27T14:08:02;17.77;;;4.93;;
17864;SDS011;9058;52.018;4.202;2023-05-27T14:10:31;13.88;;;5.03;;
17864;SDS011;9058;52.018;4.202;2023-05-27T14:12:58;15.98;;;5.25;;
17864;SDS011;9058;52.018;4.202;2023-05-27T14:15:24;16.80;;;5.30;;
17864;SDS011;9058;52.018;4.202;2023-05-27T14:17:52;17.40;;;4.95;;
17864;SDS011;9058;52.018;4.202;2023-05-27T14:20:19;16.48;;;4.82;;
17864;SDS011;9058;52.018;4.202;2023-05-27T14:22:46;13.98;;;4.47;;
17864;SDS011;9058;52.018;4.202;2023-05-27T14:25:12;16.48;;;5.30;;
17864;SDS011;9058;52.018;4.202;2023-05-27T14:27:41;23.02;;;6.50;;
17864;SDS011;9058;52.018;4.202;2023-05-27T14:30:08;23.85;;;7.47;;
17864;SDS011;9058;52.018;4.202;2023-05-27T14:32:35;17.80;;;5.07;;
17864;SDS011;9058;52.018;4.202;2023-05-27T14:35:01;19.77;;;5.47;;
17864;SDS011;9058;52.018;4.202;2023-05-27T14:37:27;17.88;;;5.35;;
17864;SDS011;9058;52.018;4.202;2023-05-27T14:39:54;16.58;;;5.47;;
17864;SDS011;9058;52.018;4.202;2023-05-27T14:42:20;14.00;;;4.90;;
17864;SDS011;9058;52.018;4.202;2023-05-27T14:44:49;16.80;;;5.22;;
17864;SDS011;9058;52.018;4.202;2023-05-27T14:47:15;18.83;;;6.10;;
17864;SDS011;9058;52.018;4.202;2023-05-27T14:49:41;16.30;;;5.15;;
17864;SDS011;9058;52.018;4.202;2023-05-27T14:52:08;14.43;;;5.18;;